Time;durP1;ratioP1;P1;durP2;ratioP2;P2;SDS_P1;SDS_P2;PMS_P1;PMS_P2;Temp;Humidity;BMP_temperature;BMP_pressure;BME280_temperature;BME280_humidity;BME280_pressure;Samples;Min_cycle;Max_cycle;Signal;HPM_P1;HPM_P2
2022/08/28 00:04:00;;;;;;;2.35;0.40;;;;;;;;;;10493016;28;20230;-78
2022/08/28 00:09:01;;;;;;;0.63;0.63;;;;;;;;;;10496057;28;20206;-77
2022/08/28 00:14:02;;;;;;;0.82;0.45;;;;;;;;;;10486822;28;21157;-78
2022/08/28 00:19:04;;;;;;;1.92;0.50;;;;;;;;;;10487080;28;20273;-77
2022/08/28 00:24:05;;;;;;;0.75;0.50;;;;;;;;;;10491579;28;20279;-78
2022/08/28 00:29:06;;;;;;;1.85;0.40;;;;;;;;;;10487407;28;23834;-76
2022/08/28 00:34:07;;;;;;;2.65;0.50;;;;;;;;;;10479979;28;20213;-76
2022/08/28 00:39:09;;;;;;;3.97;0.73;;;;;;;;;;10473911;28;20249;-77
2022/08/28 00:44:13;;;;;;;0.88;0.82;;;;;;;;;;10489242;28;20317;-77
2022/08/28 00:49:16;;;;;;;1.10;0.57;;;;;;;;;;10493132;28;20221;-77
2022/08/28 00:54:18;;;;;;;3.13;0.60;;;;;;;;;;10489290;28;20220;-77
2022/08/28 00:59:20;;;;;;;0.93;0.63;;;;;;;;;;10496624;28;20209;-77
2022/08/28 01:04:23;;;;;;;1.48;0.77;;;;;;;;;;10496347;28;20221;-78
2022/08/28 01:09:25;;;;;;;1.95;0.43;;;;;;;;;;10474252;28;20747;-77
2022/08/28 01:14:27;;;;;;;1.17;0.82;;;;;;;;;;10485038;28;20252;-77
2022/08/28 01:19:30;;;;;;;1.15;0.82;;;;;;;;;;10499786;28;20218;-76
2022/08/28 01:24:31;;;;;;;2.25;0.80;;;;;;;;;;10476294;28;20217;-77
2022/08/28 01:29:32;;;;;;;1.50;0.60;;;;;;;;;;10488488;28;20233;-76
2022/08/28 01:34:33;;;;;;;2.92;1.05;;;;;;;;;;10484794;28;20221;-78
2022/08/28 01:39:34;;;;;;;1.42;0.85;;;;;;;;;;10490649;28;20216;-77
2022/08/28 01:44:36;;;;;;;3.70;0.75;;;;;;;;;;10493468;28;20213;-77
2022/08/28 01:49:37;;;;;;;1.40;0.68;;;;;;;;;;10489077;28;20749;-77
2022/08/28 01:54:39;;;;;;;1.02;0.73;;;;;;;;;;10486073;28;20305;-77
2022/08/28 01:59:40;;;;;;;3.35;0.70;;;;;;;;;;10459788;28;20207;-78
2022/08/28 02:04:41;;;;;;;1.42;0.95;;;;;;;;;;10486972;28;20647;-73
2022/08/28 02:09:42;;;;;;;0.70;0.70;;;;;;;;;;10488532;28;20216;-76
2022/08/28 02:14:43;;;;;;;2.33;1.08;;;;;;;;;;10495336;28;20213;-76
2022/08/28 02:19:44;;;;;;;2.17;0.90;;;;;;;;;;10493626;28;20217;-74
2022/08/28 02:24:45;;;;;;;2.15;0.60;;;;;;;;;;10497426;28;20201;-76
2022/08/28 02:29:47;;;;;;;2.42;1.13;;;;;;;;;;10497081;28;20355;-73
2022/08/28 02:34:48;;;;;;;0.60;0.60;;;;;;;;;;10492529;28;20223;-76
2022/08/28 02:39:50;;;;;;;5.00;1.00;;;;;;;;;;10498189;28;20295;-76
2022/08/28 02:44:51;;;;;;;2.00;0.80;;;;;;;;;;10493968;28;20219;-77
2022/08/28 02:49:52;;;;;;;2.50;0.93;;;;;;;;;;10493175;28;20293;-75
2022/08/28 02:54:53;;;;;;;1.83;1.08;;;;;;;;;;10491597;28;20214;-74
2022/08/28 02:59:55;;;;;;;0.65;0.63;;;;;;;;;;10496280;28;20215;-76
2022/08/28 03:04:56;;;;;;;1.40;0.88;;;;;;;;;;10501849;28;20356;-75
2022/08/28 03:09:57;;;;;;;1.63;0.70;;;;;;;;;;10487220;28;20210;-73
2022/08/28 03:14:58;;;;;;;1.65;0.77;;;;;;;;;;10497430;28;20243;-76
2022/08/28 03:19:59;;;;;;;1.27;0.88;;;;;;;;;;10477928;28;20323;-76
2022/08/28 03:25:00;;;;;;;1.23;0.98;;;;;;;;;;10462797;28;20217;-75
2022/08/28 03:30:01;;;;;;;3.60;1.08;;;;;;;;;;10491603;28;20704;-74
2022/08/28 03:35:04;;;;;;;1.40;1.00;;;;;;;;;;10497077;28;20229;-74
2022/08/28 03:40:06;;;;;;;4.57;0.77;;;;;;;;;;10489459;28;20352;-75
2022/08/28 03:45:09;;;;;;;1.17;0.70;;;;;;;;;;10488819;28;20206;-74
2022/08/28 03:50:10;;;;;;;2.78;0.50;;;;;;;;;;10492305;28;20205;-75
2022/08/28 03:55:12;;;;;;;2.10;0.82;;;;;;;;;;10484997;28;20210;-75
2022/08/28 04:00:13;;;;;;;1.02;0.95;;;;;;;;;;10492644;28;20240;-75
2022/08/28 04:05:16;;;;;;;1.30;0.85;;;;;;;;;;10493431;28;20255;-75
2022/08/28 04:10:18;;;;;;;2.65;0.75;;;;;;;;;;10461703;28;20302;-76
2022/08/28 04:15:20;;;;;;;1.67;1.08;;;;;;;;;;10489209;28;20685;-75
2022/08/28 04:20:21;;;;;;;0.80;0.65;;;;;;;;;;10495965;28;20193;-75
2022/08/28 04:25:22;;;;;;;0.98;0.80;;;;;;;;;;10489432;28;20183;-75
2022/08/28 04:30:23;;;;;;;0.80;0.70;;;;;;;;;;10488411;28;20174;-76
2022/08/28 04:35:24;;;;;;;2.13;0.77;;;;;;;;;;10490761;28;20692;-76
2022/08/28 04:40:25;;;;;;;0.77;0.77;;;;;;;;;;10459081;28;20662;-75
2022/08/28 04:45:26;;;;;;;2.97;0.98;;;;;;;;;;10485452;28;20209;-75
2022/08/28 04:50:28;;;;;;;0.57;0.57;;;;;;;;;;10483097;28;20300;-75
2022/08/28 04:55:29;;;;;;;1.75;1.17;;;;;;;;;;10487707;28;20600;-77
2022/08/28 05:00:30;;;;;;;3.30;1.33;;;;;;;;;;10486991;28;20221;-76
2022/08/28 05:05:31;;;;;;;2.28;0.90;;;;;;;;;;10489866;28;20278;-75
2022/08/28 05:10:34;;;;;;;1.35;1.25;;;;;;;;;;10492758;28;20633;-75
2022/08/28 05:15:45;;;;;;;2.67;1.10;;;;;;;;;;10487800;28;20221;-77
2022/08/28 05:20:47;;;;;;;1.50;0.95;;;;;;;;;;10463731;28;20218;-75
2022/08/28 05:25:48;;;;;;;1.90;0.95;;;;;;;;;;10469365;28;20210;-78
2022/08/28 05:30:49;;;;;;;1.45;1.35;;;;;;;;;;10468972;28;20972;-76
2022/08/28 05:35:50;;;;;;;4.07;0.90;;;;;;;;;;10485782;28;20229;-78
2022/08/28 05:40:51;;;;;;;1.00;0.80;;;;;;;;;;10468862;28;20221;-77
2022/08/28 05:46:00;;;;;;;1.60;1.02;;;;;;;;;;10483675;28;20208;-75
2022/08/28 05:51:05;;;;;;;1.75;0.70;;;;;;;;;;10484977;28;20218;-77
2022/08/28 05:56:28;;;;;;;2.83;1.02;;;;;;;;;;10484217;28;20248;-76
2022/08/28 06:01:34;;;;;;;0.80;0.80;;;;;;;;;;10478310;28;20229;-75
2022/08/28 06:06:38;;;;;;;1.67;0.98;;;;;;;;;;10484146;28;20790;-75
2022/08/28 06:11:40;;;;;;;1.25;0.63;;;;;;;;;;10480868;28;20209;-77
2022/08/28 06:16:42;;;;;;;1.10;1.10;;;;;;;;;;10475998;28;20218;-76
2022/08/28 06:21:43;;;;;;;2.97;0.90;;;;;;;;;;10478251;28;20229;-78
2022/08/28 06:26:45;;;;;;;1.20;0.90;;;;;;;;;;10472635;28;20222;-76
2022/08/28 06:31:46;;;;;;;1.02;0.98;;;;;;;;;;10476060;28;20225;-76
2022/08/28 06:36:47;;;;;;;3.83;0.68;;;;;;;;;;10454982;28;20275;-74
2022/08/28 06:41:48;;;;;;;2.95;1.08;;;;;;;;;;10477683;28;20237;-76
2022/08/28 06:46:51;;;;;;;0.80;0.80;;;;;;;;;;10460448;28;20294;-74
2022/08/28 06:51:53;;;;;;;3.35;1.23;;;;;;;;;;10485317;28;20225;-76
2022/08/28 06:56:54;;;;;;;2.60;0.80;;;;;;;;;;10491368;28;20285;-76
2022/08/28 07:01:56;;;;;;;3.05;0.88;;;;;;;;;;10496446;28;20213;-72
2022/08/28 07:06:57;;;;;;;2.50;0.50;;;;;;;;;;10482448;28;20214;-74
2022/08/28 07:11:58;;;;;;;0.77;0.60;;;;;;;;;;10479408;28;20628;-73
2022/08/28 07:16:59;;;;;;;1.63;0.95;;;;;;;;;;10482124;28;20248;-76
2022/08/28 07:22:00;;;;;;;1.73;0.55;;;;;;;;;;10481810;28;20210;-75
2022/08/28 07:27:01;;;;;;;0.65;0.65;;;;;;;;;;10477202;28;20218;-74
2022/08/28 07:32:03;;;;;;;1.80;0.50;;;;;;;;;;10476575;28;20953;-78
2022/08/28 07:37:07;;;;;;;3.17;0.93;;;;;;;;;;10480294;28;20400;-76
2022/08/28 07:42:09;;;;;;;1.35;0.70;;;;;;;;;;10446101;28;20206;-73
2022/08/28 07:47:10;;;;;;;0.60;0.60;;;;;;;;;;10483535;28;20198;-74
2022/08/28 07:52:12;;;;;;;3.00;0.60;;;;;;;;;;10482218;28;20202;-78
2022/08/28 07:57:13;;;;;;;0.70;0.70;;;;;;;;;;10491973;28;20210;-78
2022/08/28 08:02:15;;;;;;;0.60;0.60;;;;;;;;;;10494071;28;20213;-76
2022/08/28 08:07:16;;;;;;;1.02;0.52;;;;;;;;;;10478028;28;20251;-78
2022/08/28 08:12:18;;;;;;;1.10;1.00;;;;;;;;;;10484783;28;20266;-75
2022/08/28 08:17:19;;;;;;;0.50;0.50;;;;;;;;;;10487920;28;20213;-78
2022/08/28 08:22:20;;;;;;;1.27;0.88;;;;;;;;;;10491430;28;21047;-77
2022/08/28 08:27:21;;;;;;;1.98;0.60;;;;;;;;;;10489707;28;20683;-79
2022/08/28 08:32:22;;;;;;;1.05;0.93;;;;;;;;;;10490070;28;20430;-76
2022/08/28 08:37:23;;;;;;;2.08;1.10;;;;;;;;;;10473655;28;20586;-78
2022/08/28 08:42:29;;;;;;;1.05;0.80;;;;;;;;;;10493606;28;20221;-74
2022/08/28 08:47:50;;;;;;;0.90;0.90;;;;;;;;;;10491694;28;20295;-76
2022/08/28 08:52:59;;;;;;;2.35;0.63;;;;;;;;;;10465128;28;20217;-82
2022/08/28 08:58:06;;;;;;;1.27;0.80;;;;;;;;;;10494974;28;20212;-81
2022/08/28 09:03:17;;;;;;;0.75;0.60;;;;;;;;;;10477474;28;20773;-78
2022/08/28 09:08:26;;;;;;;1.25;0.90;;;;;;;;;;10491631;28;20224;-80
2022/08/28 09:13:50;;;;;;;2.47;0.80;;;;;;;;;;10484501;28;20227;-77
2022/08/28 09:18:53;;;;;;;2.25;0.60;;;;;;;;;;10478951;28;20210;-75
2022/08/28 09:23:54;;;;;;;0.55;0.55;;;;;;;;;;10488934;28;20202;-80
2022/08/28 09:29:03;;;;;;;0.73;0.40;;;;;;;;;;10490217;28;20218;-76
2022/08/28 09:34:16;;;;;;;2.88;0.93;;;;;;;;;;10459656;28;20221;-76
2022/08/28 09:39:19;;;;;;;1.63;0.70;;;;;;;;;;10490509;28;20292;-78
2022/08/28 09:44:20;;;;;;;0.82;0.50;;;;;;;;;;10472589;28;20209;-82
2022/08/28 09:49:26;;;;;;;0.40;0.40;;;;;;;;;;10496080;28;20237;-82
2022/08/28 09:54:31;;;;;;;4.35;0.70;;;;;;;;;;10492305;28;20651;-79
2022/08/28 09:59:32;;;;;;;1.40;0.60;;;;;;;;;;10470412;28;20292;-74
2022/08/28 10:04:52;;;;;;;0.95;0.50;;;;;;;;;;10460598;28;20248;-80
2022/08/28 10:09:59;;;;;;;1.75;0.60;;;;;;;;;;10493064;28;20217;-85
2022/08/28 10:15:03;;;;;;;0.63;0.50;;;;;;;;;;10493519;28;20799;-80
2022/08/28 10:20:20;;;;;;;0.60;0.60;;;;;;;;;;10490575;28;20720;-79
2022/08/28 10:25:38;;;;;;;0.55;0.55;;;;;;;;;;10489239;28;20708;-80
2022/08/28 10:30:43;;;;;;;0.40;0.40;;;;;;;;;;10494676;28;20210;-77
2022/08/28 10:35:57;;;;;;;1.35;0.73;;;;;;;;;;10448287;28;20270;-78
2022/08/28 10:40:58;;;;;;;0.80;0.60;;;;;;;;;;10501320;28;20218;-79
2022/08/28 10:46:25;;;;;;;1.25;0.30;;;;;;;;;;10496988;28;20218;-77
2022/08/28 10:51:32;;;;;;;0.30;0.30;;;;;;;;;;10455847;28;20221;-78
2022/08/28 10:56:36;;;;;;;0.98;0.50;;;;;;;;;;10498471;28;20239;-72
2022/08/28 11:01:39;;;;;;;1.75;0.50;;;;;;;;;;10470998;28;20703;-73
2022/08/28 11:06:42;;;;;;;1.33;0.45;;;;;;;;;;10500914;28;20242;-72
2022/08/28 11:11:45;;;;;;;1.30;0.60;;;;;;;;;;10497733;28;20267;-75
2022/08/28 11:16:48;;;;;;;0.95;0.40;;;;;;;;;;10484259;28;20266;-72
2022/08/28 11:21:49;;;;;;;0.63;0.50;;;;;;;;;;10465897;28;20713;-73
2022/08/28 11:26:51;;;;;;;0.57;0.40;;;;;;;;;;10491243;28;20224;-74
2022/08/28 11:32:12;;;;;;;0.30;0.30;;;;;;;;;;10489985;28;20224;-73
2022/08/28 11:37:33;;;;;;;0.40;0.40;;;;;;;;;;10485046;28;20344;-72
2022/08/28 11:42:35;;;;;;;0.40;0.40;;;;;;;;;;10488286;28;20217;-77
2022/08/28 11:47:39;;;;;;;0.52;0.52;;;;;;;;;;10484284;28;20233;-77
2022/08/28 11:52:50;;;;;;;1.70;0.73;;;;;;;;;;10498563;28;20250;-75
2022/08/28 11:58:14;;;;;;;0.75;0.30;;;;;;;;;;10451387;28;20202;-78
2022/08/28 12:03:16;;;;;;;0.50;0.50;;;;;;;;;;10497778;28;20228;-74
2022/08/28 12:08:55;;;;;;;0.63;0.50;;;;;;;;;;10443021;28;20222;-73
2022/08/28 12:13:57;;;;;;;0.30;0.30;;;;;;;;;;10487190;28;20294;-74
2022/08/28 12:19:00;;;;;;;0.50;0.50;;;;;;;;;;10497834;28;20217;-76
2022/08/28 12:24:03;;;;;;;1.38;0.40;;;;;;;;;;10499572;28;20218;-76
2022/08/28 12:29:07;;;;;;;0.50;0.50;;;;;;;;;;10498116;28;20214;-73
2022/08/28 12:34:11;;;;;;;0.30;0.30;;;;;;;;;;10496968;28;20249;-80
2022/08/28 12:39:17;;;;;;;0.47;0.40;;;;;;;;;;10501796;28;20234;-80
2022/08/28 12:44:23;;;;;;;1.85;0.70;;;;;;;;;;10501069;28;20217;-78
2022/08/28 12:49:30;;;;;;;0.47;0.40;;;;;;;;;;10498255;28;20628;-77
2022/08/28 12:54:31;;;;;;;1.48;0.50;;;;;;;;;;10498316;28;20300;-72
2022/08/28 12:59:32;;;;;;;0.50;0.50;;;;;;;;;;10499325;28;20637;-75
2022/08/28 13:04:38;;;;;;;0.40;0.40;;;;;;;;;;10458994;28;20324;-74
2022/08/28 13:09:44;;;;;;;0.80;0.47;;;;;;;;;;10494610;28;20252;-78
2022/08/28 13:14:45;;;;;;;0.77;0.40;;;;;;;;;;10498771;28;20221;-75
2022/08/28 13:20:00;;;;;;;0.43;0.40;;;;;;;;;;10466463;28;20209;-78
2022/08/28 13:25:02;;;;;;;1.08;0.40;;;;;;;;;;10480649;28;20218;-74
2022/08/28 13:30:03;;;;;;;0.55;0.30;;;;;;;;;;10498611;28;20240;-77
2022/08/28 13:35:15;;;;;;;0.68;0.40;;;;;;;;;;10493570;28;20223;-72
2022/08/28 13:40:18;;;;;;;0.50;0.40;;;;;;;;;;10462713;28;20225;-74
2022/08/28 13:45:19;;;;;;;0.40;0.40;;;;;;;;;;10493380;28;20173;-81
2022/08/28 13:50:21;;;;;;;1.23;0.45;;;;;;;;;;10471246;28;20699;-81
2022/08/28 13:55:22;;;;;;;1.02;0.57;;;;;;;;;;10500151;28;20297;-83
2022/08/28 14:00:23;;;;;;;0.40;0.40;;;;;;;;;;10487651;28;20185;-81
2022/08/28 14:05:25;;;;;;;3.10;0.63;;;;;;;;;;10494376;28;20251;-76
2022/08/28 14:10:26;;;;;;;0.40;0.40;;;;;;;;;;10503046;28;20214;-75
2022/08/28 14:15:27;;;;;;;2.15;0.70;;;;;;;;;;10474724;28;20225;-78
2022/08/28 14:20:28;;;;;;;2.17;0.95;;;;;;;;;;10474093;28;20232;-78
2022/08/28 14:25:29;;;;;;;0.77;0.50;;;;;;;;;;10499859;28;20237;-81
2022/08/28 14:30:30;;;;;;;0.50;0.50;;;;;;;;;;10472577;28;20244;-77
2022/08/28 14:35:31;;;;;;;0.85;0.43;;;;;;;;;;10501530;28;20286;-76
2022/08/28 14:40:35;;;;;;;0.80;0.68;;;;;;;;;;10502670;28;20256;-76
2022/08/28 14:45:42;;;;;;;0.30;0.30;;;;;;;;;;10447266;28;20655;-73
2022/08/28 14:50:45;;;;;;;0.40;0.40;;;;;;;;;;10500583;28;20225;-80
2022/08/28 14:55:48;;;;;;;0.65;0.60;;;;;;;;;;10508626;28;20229;-78
2022/08/28 15:00:50;;;;;;;0.68;0.30;;;;;;;;;;10506592;28;20221;-77
2022/08/28 15:06:01;;;;;;;0.30;0.30;;;;;;;;;;10501297;28;20229;-79
2022/08/28 15:11:06;;;;;;;1.40;0.47;;;;;;;;;;10500334;28;20216;-78
2022/08/28 15:16:09;;;;;;;0.38;0.30;;;;;;;;;;10492039;28;20219;-76
2022/08/28 15:21:17;;;;;;;0.40;0.40;;;;;;;;;;10500066;28;20337;-75
2022/08/28 15:26:20;;;;;;;0.40;0.40;;;;;;;;;;10498284;28;20213;-75
2022/08/28 15:31:23;;;;;;;3.03;0.43;;;;;;;;;;10497015;28;20320;-74
2022/08/28 15:36:24;;;;;;;0.80;0.30;;;;;;;;;;10470697;28;20240;-76
2022/08/28 15:41:25;;;;;;;0.55;0.45;;;;;;;;;;10483127;28;20296;-76
2022/08/28 15:46:27;;;;;;;1.00;0.40;;;;;;;;;;10499183;28;20228;-74
2022/08/28 15:51:29;;;;;;;1.08;0.40;;;;;;;;;;10498535;28;20656;-76
2022/08/28 15:56:30;;;;;;;0.63;0.40;;;;;;;;;;10480808;28;20600;-74
2022/08/28 16:01:31;;;;;;;0.75;0.40;;;;;;;;;;10502958;28;20211;-77
2022/08/28 16:06:32;;;;;;;0.45;0.30;;;;;;;;;;10501591;28;20222;-77
2022/08/28 16:11:33;;;;;;;0.47;0.47;;;;;;;;;;10499981;28;20221;-76
2022/08/28 16:16:34;;;;;;;0.73;0.50;;;;;;;;;;10501493;28;20217;-74
2022/08/28 16:21:36;;;;;;;1.23;0.60;;;;;;;;;;10501244;28;20216;-76
2022/08/28 16:26:37;;;;;;;0.63;0.40;;;;;;;;;;10498723;28;20224;-73
2022/08/28 16:31:38;;;;;;;0.60;0.60;;;;;;;;;;10499002;28;20305;-78
2022/08/28 16:36:39;;;;;;;0.68;0.38;;;;;;;;;;10500233;28;20222;-77
2022/08/28 16:41:40;;;;;;;0.55;0.40;;;;;;;;;;10495623;28;20267;-75
2022/08/28 16:46:42;;;;;;;0.38;0.38;;;;;;;;;;10494652;28;20226;-72
2022/08/28 16:51:44;;;;;;;0.20;0.20;;;;;;;;;;10462835;28;20299;-75
2022/08/28 16:56:45;;;;;;;0.40;0.40;;;;;;;;;;10495183;28;20320;-76
2022/08/28 17:01:47;;;;;;;0.75;0.40;;;;;;;;;;10498333;28;20306;-77
2022/08/28 17:06:48;;;;;;;0.55;0.40;;;;;;;;;;10496109;28;20711;-75
2022/08/28 17:11:49;;;;;;;0.40;0.40;;;;;;;;;;10487686;28;20759;-75
2022/08/28 17:16:50;;;;;;;0.40;0.40;;;;;;;;;;10496573;28;20276;-74
2022/08/28 17:27:13;;;;;;;0.43;0.43;;;;;;;;;;10487229;28;20304;-73
2022/08/28 17:32:14;;;;;;;0.40;0.40;;;;;;;;;;10483982;28;20310;-74
2022/08/28 17:37:15;;;;;;;0.30;0.30;;;;;;;;;;10481537;28;20229;-76
2022/08/28 17:42:16;;;;;;;0.50;0.50;;;;;;;;;;10481856;28;20214;-72
2022/08/28 17:47:18;;;;;;;0.40;0.40;;;;;;;;;;10448142;28;20218;-72
2022/08/28 17:52:19;;;;;;;0.38;0.38;;;;;;;;;;10483816;28;20205;-73
2022/08/28 17:57:20;;;;;;;1.42;0.50;;;;;;;;;;10484151;28;20210;-72
2022/08/28 18:02:22;;;;;;;0.28;0.28;;;;;;;;;;10465325;28;20209;-73
2022/08/28 18:07:23;;;;;;;0.22;0.22;;;;;;;;;;10490494;28;20764;-72
2022/08/28 18:12:24;;;;;;;0.32;0.20;;;;;;;;;;10490300;28;20764;-74
2022/08/28 18:17:26;;;;;;;0.30;0.30;;;;;;;;;;10462043;28;20214;-76
2022/08/28 18:22:27;;;;;;;0.25;0.25;;;;;;;;;;10491814;28;20210;-75
2022/08/28 18:27:30;;;;;;;0.88;0.20;;;;;;;;;;10491661;28;20233;-75
2022/08/28 18:32:31;;;;;;;0.30;0.30;;;;;;;;;;10492546;28;20217;-76
2022/08/28 18:37:32;;;;;;;0.40;0.40;;;;;;;;;;10481707;28;20202;-73
2022/08/28 18:42:33;;;;;;;0.20;0.20;;;;;;;;;;10463812;28;20218;-77
2022/08/28 18:47:35;;;;;;;0.30;0.30;;;;;;;;;;10476599;28;20214;-78
2022/08/28 18:52:37;;;;;;;0.30;0.30;;;;;;;;;;10489281;28;20221;-73
2022/08/28 18:57:38;;;;;;;1.33;0.40;;;;;;;;;;10484497;28;20206;-78
2022/08/28 19:02:39;;;;;;;0.47;0.47;;;;;;;;;;10464208;28;20241;-76
2022/08/28 19:07:40;;;;;;;0.80;0.80;;;;;;;;;;10466065;28;20248;-80
2022/08/28 19:12:41;;;;;;;0.75;0.55;;;;;;;;;;10472632;28;20213;-71
2022/08/28 19:17:42;;;;;;;1.17;0.60;;;;;;;;;;10486971;28;20213;-75
2022/08/28 19:22:44;;;;;;;2.70;0.55;;;;;;;;;;10490547;28;20214;-73
2022/08/28 19:27:45;;;;;;;0.40;0.40;;;;;;;;;;10482174;28;20213;-72
2022/08/28 19:32:47;;;;;;;0.50;0.50;;;;;;;;;;10489310;28;20244;-73
2022/08/28 19:37:49;;;;;;;1.67;0.63;;;;;;;;;;10474076;28;20210;-73
2022/08/28 19:42:50;;;;;;;1.27;0.60;;;;;;;;;;10474033;28;20308;-70
2022/08/28 19:47:51;;;;;;;0.80;0.80;;;;;;;;;;10464318;28;20214;-71
2022/08/28 19:52:52;;;;;;;1.45;0.95;;;;;;;;;;10463671;28;20300;-73
2022/08/28 19:57:54;;;;;;;1.75;1.15;;;;;;;;;;10486095;28;20275;-72
2022/08/28 20:02:56;;;;;;;0.63;0.63;;;;;;;;;;10493505;28;20206;-73
2022/08/28 20:07:57;;;;;;;0.70;0.70;;;;;;;;;;10462421;28;20229;-72
2022/08/28 20:12:58;;;;;;;1.17;0.68;;;;;;;;;;10468420;28;20224;-73
2022/08/28 20:17:59;;;;;;;0.80;0.80;;;;;;;;;;10488022;28;20209;-73
2022/08/28 20:23:01;;;;;;;0.70;0.57;;;;;;;;;;10488992;28;20218;-73
2022/08/28 20:28:02;;;;;;;0.80;0.80;;;;;;;;;;10462718;28;20875;-73
2022/08/28 20:33:03;;;;;;;4.43;1.10;;;;;;;;;;10483200;28;20218;-73
2022/08/28 20:38:05;;;;;;;1.42;0.82;;;;;;;;;;10492309;28;20246;-73
2022/08/28 20:43:06;;;;;;;3.88;1.25;;;;;;;;;;10488028;28;20289;-73
2022/08/28 20:48:07;;;;;;;1.05;0.70;;;;;;;;;;10492093;28;20588;-73
2022/08/28 20:53:08;;;;;;;1.00;0.85;;;;;;;;;;10492206;28;20240;-73
2022/08/28 20:58:11;;;;;;;1.20;1.10;;;;;;;;;;10491947;28;20715;-72
2022/08/28 21:03:12;;;;;;;0.75;0.65;;;;;;;;;;10491272;28;20694;-73
2022/08/28 21:08:13;;;;;;;1.75;0.80;;;;;;;;;;10465317;28;20222;-73
2022/08/28 21:13:14;;;;;;;0.90;0.90;;;;;;;;;;10494761;28;20593;-73
2022/08/28 21:18:15;;;;;;;2.05;0.70;;;;;;;;;;10463982;28;20216;-73
2022/08/28 21:23:16;;;;;;;2.20;0.68;;;;;;;;;;10492040;28;20218;-73
2022/08/28 21:28:17;;;;;;;2.35;0.98;;;;;;;;;;10490927;28;20209;-73
2022/08/28 21:33:19;;;;;;;2.47;0.68;;;;;;;;;;10482245;28;20734;-72
2022/08/28 21:38:20;;;;;;;1.27;1.00;;;;;;;;;;10486923;28;20256;-71
2022/08/28 21:43:21;;;;;;;0.80;0.80;;;;;;;;;;10483268;28;20952;-71
2022/08/28 21:48:22;;;;;;;1.58;1.20;;;;;;;;;;10486811;28;20219;-72
2022/08/28 21:53:23;;;;;;;0.82;0.82;;;;;;;;;;10491760;28;20210;-72
2022/08/28 21:58:24;;;;;;;2.25;1.35;;;;;;;;;;10472494;28;20225;-72
2022/08/28 22:03:26;;;;;;;1.13;0.80;;;;;;;;;;10487236;28;20213;-72
2022/08/28 22:08:27;;;;;;;1.25;0.90;;;;;;;;;;10491889;28;20725;-71
2022/08/28 22:13:28;;;;;;;1.10;1.10;;;;;;;;;;10493624;28;20266;-72
2022/08/28 22:18:29;;;;;;;1.60;1.08;;;;;;;;;;10485846;28;20213;-72
2022/08/28 22:23:33;;;;;;;3.30;0.90;;;;;;;;;;10496634;28;20245;-72
2022/08/28 22:28:34;;;;;;;3.55;0.80;;;;;;;;;;10497004;28;20279;-73
2022/08/28 22:33:35;;;;;;;0.77;0.77;;;;;;;;;;10480691;28;20258;-72
2022/08/28 22:38:38;;;;;;;0.70;0.70;;;;;;;;;;10499323;28;20218;-72
2022/08/28 22:43:39;;;;;;;2.03;0.90;;;;;;;;;;10467313;28;20205;-72
2022/08/28 22:48:41;;;;;;;0.98;0.98;;;;;;;;;;10496641;28;20863;-72
2022/08/28 22:53:42;;;;;;;1.00;0.68;;;;;;;;;;10496276;28;20209;-72
2022/08/28 22:58:44;;;;;;;1.45;0.88;;;;;;;;;;10491158;28;20213;-72
2022/08/28 23:03:45;;;;;;;1.75;0.80;;;;;;;;;;10491433;28;20234;-72
2022/08/28 23:08:47;;;;;;;2.17;0.70;;;;;;;;;;10458116;28;20214;-72
2022/08/28 23:13:48;;;;;;;1.10;1.08;;;;;;;;;;10455982;28;20596;-72
2022/08/28 23:18:50;;;;;;;1.30;0.60;;;;;;;;;;10456128;28;20211;-72
2022/08/28 23:23:51;;;;;;;0.70;0.70;;;;;;;;;;10445262;28;20273;-72
2022/08/28 23:28:52;;;;;;;2.95;0.80;;;;;;;;;;10453743;28;20218;-72
2022/08/28 23:33:53;;;;;;;0.88;0.68;;;;;;;;;;10453079;28;20226;-72
2022/08/28 23:38:54;;;;;;;0.60;0.60;;;;;;;;;;10421986;28;20214;-72
2022/08/28 23:43:55;;;;;;;2.05;0.95;;;;;;;;;;10417870;28;20222;-71
2022/08/28 23:48:56;;;;;;;2.00;0.85;;;;;;;;;;10416571;28;20225;-72
2022/08/28 23:53:57;;;;;;;1.40;0.70;;;;;;;;;;10410690;28;20218;-72
2022/08/28 23:58:58;;;;;;;1.02;0.80;;;;;;;;;;10416065;28;20577;-72
